Time;durP1;ratioP1;P1;durP2;ratioP2;P2;SDS_P1;SDS_P2;PMS_P1;PMS_P2;Temp;Humidity;BMP_temperature;BMP_pressure;BME280_temperature;BME280_humidity;BME280_pressure;Samples;Min_cycle;Max_cycle;Signal;HPM_P1;HPM_P2
2021/09/09 00:00:01;;;;;;;9.98;7.03;;;;;;;;;;5062282;28;20389;-88
2021/09/09 00:02:27;;;;;;;12.68;6.85;;;;;;;;;;5056588;28;20029;-87
2021/09/09 00:04:53;;;;;;;10.55;6.80;;;18.10;99.10;;;;;;5046910;28;20045;-87
2021/09/09 00:07:19;;;;;;;10.35;7.10;;;18.10;99.30;;;;;;5050206;28;20021;-88
2021/09/09 00:09:44;;;;;;;11.40;6.80;;;18.20;99.40;;;;;;5049752;28;20041;-88
2021/09/09 00:12:10;;;;;;;9.63;6.57;;;18.00;99.30;;;;;;5058254;28;20527;-84
2021/09/09 00:14:36;;;;;;;10.05;6.68;;;18.00;99.40;;;;;;5046896;28;20491;-88
2021/09/09 00:17:01;;;;;;;10.15;6.50;;;18.00;99.50;;;;;;5053782;28;20031;-89
2021/09/09 00:19:27;;;;;;;12.50;7.47;;;18.00;99.60;;;;;;5063569;28;20470;-88
2021/09/09 00:21:53;;;;;;;10.75;6.95;;;17.90;99.40;;;;;;5050729;28;20401;-85
2021/09/09 00:24:19;;;;;;;9.63;6.47;;;17.90;99.40;;;;;;5054632;28;20040;-87
2021/09/09 00:26:44;;;;;;;10.35;6.70;;;17.90;99.40;;;;;;5070978;28;20036;-88
2021/09/09 00:29:10;;;;;;;10.63;6.57;;;17.90;99.50;;;;;;5066189;28;20005;-87
2021/09/09 00:31:36;;;;;;;12.82;7.05;;;17.80;99.60;;;;;;5067975;28;20024;-88
2021/09/09 00:34:02;;;;;;;10.98;7.40;;;;;;;;;;5050504;28;20103;-84
2021/09/09 00:36:28;;;;;;;11.77;7.90;;;17.70;99.90;;;;;;5051857;28;20017;-86
2021/09/09 00:38:53;;;;;;;12.27;7.82;;;17.70;99.90;;;;;;5048720;28;20210;-83
2021/09/09 00:41:22;;;;;;;11.45;7.90;;;;;;;;;;5065550;28;20036;-85
2021/09/09 00:43:47;;;;;;;14.10;8.57;;;17.50;99.90;;;;;;5048418;28;20079;-83
2021/09/09 00:46:13;;;;;;;11.70;7.82;;;17.40;99.90;;;;;;5042020;28;20024;-87
2021/09/09 00:48:39;;;;;;;14.25;8.23;;;17.40;99.90;;;;;;5047104;28;20025;-88
2021/09/09 00:51:04;;;;;;;14.25;8.35;;;17.40;99.90;;;;;;5057399;28;20086;-88
2021/09/09 00:53:30;;;;;;;12.90;8.15;;;17.40;99.90;;;;;;5063889;28;20032;-85
2021/09/09 00:55:56;;;;;;;12.45;8.18;;;17.40;99.90;;;;;;5052145;28;20048;-87
2021/09/09 00:58:22;;;;;;;14.10;8.27;;;17.60;99.90;;;;;;5055435;28;20380;-89
2021/09/09 01:00:47;;;;;;;12.23;8.70;;;17.40;99.90;;;;;;5053680;28;20049;-87
2021/09/09 01:03:13;;;;;;;12.68;7.90;;;17.50;99.90;;;;;;5051126;28;20032;-86
2021/09/09 01:05:39;;;;;;;12.05;7.38;;;17.60;99.90;;;;;;5060101;28;20070;-88
2021/09/09 01:08:05;;;;;;;12.05;7.57;;;17.50;99.90;;;;;;5056522;28;20485;-87
2021/09/09 01:10:33;;;;;;;11.02;6.95;;;17.40;99.90;;;;;;5050158;28;20033;-86
2021/09/09 01:12:59;;;;;;;11.60;6.68;;;17.40;99.90;;;;;;5063593;28;20086;-86
2021/09/09 01:15:24;;;;;;;14.27;7.10;;;17.30;99.90;;;;;;5051759;28;20025;-87
2021/09/09 01:17:50;;;;;;;11.02;6.93;;;17.40;99.90;;;;;;5061315;28;20024;-87
2021/09/09 01:20:16;;;;;;;11.88;7.47;;;17.50;99.90;;;;;;5051174;28;20028;-87
2021/09/09 01:22:42;;;;;;;10.70;7.35;;;17.30;99.90;;;;;;5058767;28;20496;-91
2021/09/09 01:25:10;;;;;;;12.05;7.65;;;17.30;99.90;;;;;;5054112;28;20054;-89
2021/09/09 01:27:36;;;;;;;11.07;7.53;;;17.30;99.90;;;;;;5043231;28;20029;-89
2021/09/09 01:30:03;;;;;;;11.50;7.13;;;17.40;99.90;;;;;;5064197;28;20054;-88
2021/09/09 01:32:28;;;;;;;10.98;7.55;;;17.20;99.90;;;;;;5056134;28;20039;-87
2021/09/09 01:34:54;;;;;;;10.43;7.47;;;17.30;99.90;;;;;;5056862;28;20389;-89
2021/09/09 01:37:19;;;;;;;11.57;7.40;;;17.10;99.90;;;;;;5061402;28;20373;-87
2021/09/09 01:39:47;;;;;;;10.02;7.10;;;17.20;99.90;;;;;;5054466;28;20025;-88
2021/09/09 01:42:13;;;;;;;13.18;7.88;;;17.10;99.90;;;;;;5053372;28;20034;-88
2021/09/09 01:44:39;;;;;;;12.02;7.57;;;17.10;99.90;;;;;;5054334;28;20106;-87
2021/09/09 01:47:04;;;;;;;12.27;7.43;;;17.20;99.90;;;;;;5037366;28;20037;-88
2021/09/09 01:49:30;;;;;;;13.00;7.35;;;17.10;99.90;;;;;;5058000;28;20419;-89
2021/09/09 01:51:55;;;;;;;11.25;7.00;;;17.10;99.90;;;;;;5061052;28;20028;-88
2021/09/09 01:54:22;;;;;;;12.52;7.30;;;17.10;99.90;;;;;;5052938;28;20037;-87
2021/09/09 01:56:48;;;;;;;11.02;7.72;;;;;;;;;;5052533;28;20025;-86
2021/09/09 01:59:13;;;;;;;11.25;7.00;;;17.10;99.90;;;;;;5054301;28;20021;-87
2021/09/09 02:01:39;;;;;;;13.15;8.38;;;17.10;99.90;;;;;;5045529;28;20428;-87
2021/09/09 02:04:05;;;;;;;12.18;8.27;;;17.00;99.90;;;;;;5058886;28;20021;-88
2021/09/09 02:06:32;;;;;;;12.73;8.40;;;17.00;99.90;;;;;;5064818;28;20134;-87
2021/09/09 02:08:57;;;;;;;12.90;7.88;;;16.90;99.90;;;;;;5065739;28;20595;-88
2021/09/09 02:11:24;;;;;;;12.80;7.63;;;16.80;99.90;;;;;;5042108;28;20044;-86
2021/09/09 02:13:50;;;;;;;12.23;8.25;;;16.90;99.90;;;;;;5053580;28;20490;-89
2021/09/09 02:16:16;;;;;;;12.13;7.82;;;16.90;99.90;;;;;;5059900;28;20028;-86
2021/09/09 02:18:41;;;;;;;12.07;7.63;;;17.00;99.90;;;;;;5042902;28;20515;-88
2021/09/09 02:21:07;;;;;;;13.27;7.95;;;16.90;99.90;;;;;;5064447;28;20445;-88
2021/09/09 02:23:32;;;;;;;12.73;8.27;;;16.90;99.90;;;;;;5053497;28;20036;-88
2021/09/09 02:25:58;;;;;;;13.13;8.30;;;16.90;99.90;;;;;;5055440;28;20393;-89
2021/09/09 02:28:24;;;;;;;10.85;7.78;;;16.90;99.90;;;;;;5057208;28;20025;-88
2021/09/09 02:30:50;;;;;;;13.63;8.63;;;16.90;99.90;;;;;;5064396;28;20475;-88
2021/09/09 02:33:15;;;;;;;12.48;8.38;;;16.90;99.90;;;;;;5062556;28;20024;-86
2021/09/09 02:35:41;;;;;;;13.15;8.05;;;17.00;99.90;;;;;;5054209;28;20115;-90
2021/09/09 02:38:07;;;;;;;12.93;8.32;;;16.90;99.90;;;;;;5041437;28;20444;-88
2021/09/09 02:40:33;;;;;;;12.18;7.85;;;17.10;99.90;;;;;;5056622;28;20029;-86
2021/09/09 02:42:58;;;;;;;13.93;8.10;;;16.80;99.90;;;;;;5056024;28;20386;-88
2021/09/09 02:45:24;;;;;;;10.93;7.97;;;16.80;99.90;;;;;;5062752;28;20028;-88
2021/09/09 02:47:50;;;;;;;10.18;7.45;;;16.70;99.90;;;;;;5044512;28;20179;-84
2021/09/09 02:50:16;;;;;;;11.15;7.07;;;16.70;99.90;;;;;;5067409;28;20708;-88
2021/09/09 02:52:42;;;;;;;11.45;7.88;;;16.70;99.90;;;;;;5058392;28;20025;-87
2021/09/09 02:55:09;;;;;;;11.63;7.82;;;16.70;99.90;;;;;;5059840;28;20024;-86
2021/09/09 02:57:36;;;;;;;11.75;8.10;;;16.60;99.90;;;;;;5057196;28;20044;-87
2021/09/09 03:00:06;;;;;;;14.05;8.43;;;16.60;99.90;;;;;;5057296;28;20375;-86
2021/09/09 03:02:32;;;;;;;12.02;8.20;;;16.00;99.90;;;;;;5065306;28;20412;-86
2021/09/09 03:04:58;;;;;;;11.95;8.60;;;16.60;99.90;;;;;;5065005;28;20112;-89
2021/09/09 03:07:23;;;;;;;11.50;7.90;;;16.60;99.90;;;;;;5056878;28;20397;-88
2021/09/09 03:09:49;;;;;;;13.32;8.32;;;;;;;;;;5060698;28;20030;-88
2021/09/09 03:12:15;;;;;;;12.18;7.85;;;16.60;99.90;;;;;;5057008;28;20028;-87
2021/09/09 03:14:41;;;;;;;14.35;8.70;;;16.60;99.90;;;;;;5065505;28;20063;-89
2021/09/09 03:17:06;;;;;;;12.70;8.57;;;16.50;99.90;;;;;;5060319;28;20485;-87
2021/09/09 03:19:32;;;;;;;13.52;8.85;;;16.50;99.90;;;;;;5062339;28;20020;-88
2021/09/09 03:21:58;;;;;;;13.10;8.70;;;16.40;99.90;;;;;;5058216;28;20036;-87
2021/09/09 03:24:23;;;;;;;15.45;9.05;;;16.40;99.90;;;;;;5063943;28;20286;-88
2021/09/09 03:26:50;;;;;;;12.80;7.68;;;16.30;99.90;;;;;;5059879;28;20032;-88
2021/09/09 03:29:16;;;;;;;14.38;8.18;;;16.30;99.90;;;;;;5043043;28;20025;-88
2021/09/09 03:31:42;;;;;;;13.05;8.68;;;16.30;99.90;;;;;;5061827;28;20033;-88
2021/09/09 03:34:08;;;;;;;12.30;8.43;;;16.30;99.90;;;;;;5040138;28;20018;-86
2021/09/09 03:36:34;;;;;;;12.85;7.57;;;16.30;99.90;;;;;;5054743;28;20083;-87
2021/09/09 03:38:59;;;;;;;11.73;8.00;;;16.40;99.90;;;;;;5054522;28;20051;-89
2021/09/09 03:41:25;;;;;;;17.02;8.30;;;16.40;99.90;;;;;;5048472;28;20501;-87
2021/09/09 03:43:50;;;;;;;14.90;9.02;;;16.40;99.90;;;;;;5049621;28;20482;-87
2021/09/09 03:46:16;;;;;;;13.05;7.50;;;16.40;99.90;;;;;;5054537;28;20029;-87
2021/09/09 03:48:42;;;;;;;15.70;7.72;;;16.30;99.90;;;;;;5060143;28;20036;-87
2021/09/09 03:51:07;;;;;;;10.88;7.50;;;16.40;99.90;;;;;;5055811;28;20033;-88
2021/09/09 03:53:33;;;;;;;11.73;7.60;;;16.40;99.90;;;;;;5049047;28;20114;-87
2021/09/09 03:55:59;;;;;;;10.98;7.15;;;16.50;99.90;;;;;;5055650;28;20074;-86
2021/09/09 03:58:24;;;;;;;13.07;7.63;;;16.50;99.90;;;;;;5069537;28;20075;-85
2021/09/09 04:00:50;;;;;;;10.80;7.50;;;16.60;99.90;;;;;;5055481;28;20075;-87
2021/09/09 04:03:15;;;;;;;11.90;7.63;;;16.50;99.90;;;;;;5053925;28;20025;-85
2021/09/09 04:05:41;;;;;;;11.10;7.70;;;16.50;99.90;;;;;;5052858;28;20521;-89
2021/09/09 04:08:07;;;;;;;11.40;7.75;;;16.60;99.90;;;;;;5054963;28;20021;-86
2021/09/09 04:10:34;;;;;;;11.07;7.80;;;;;;;;;;5060516;28;20035;-87
2021/09/09 04:12:59;;;;;;;11.50;7.47;;;16.60;99.90;;;;;;5062387;28;20046;-86
2021/09/09 04:15:25;;;;;;;13.40;8.23;;;16.60;99.90;;;;;;5052261;28;20029;-87
2021/09/09 04:17:51;;;;;;;11.60;7.75;;;16.60;99.90;;;;;;5051048;28;20033;-85
2021/09/09 04:20:17;;;;;;;12.05;7.97;;;16.70;99.90;;;;;;5050543;28;20027;-87
2021/09/09 04:22:43;;;;;;;12.57;8.35;;;16.60;99.90;;;;;;5058663;28;20029;-88
2021/09/09 04:25:09;;;;;;;13.85;6.88;;;16.70;99.90;;;;;;5047634;28;20115;-86
2021/09/09 04:27:34;;;;;;;11.23;7.80;;;16.60;99.90;;;;;;5051401;28;20577;-88
2021/09/09 04:30:04;;;;;;;11.45;7.75;;;16.70;99.90;;;;;;5053149;28;20485;-89
2021/09/09 04:32:30;;;;;;;13.38;8.45;;;;;;;;;;5046905;28;20067;-87
2021/09/09 04:34:56;;;;;;;11.63;7.85;;;;;;;;;;5049254;28;20083;-87
2021/09/09 04:37:22;;;;;;;13.38;8.07;;;;;;;;;;5058335;28;20055;-86
2021/09/09 04:39:48;;;;;;;13.63;8.20;;;16.40;99.90;;;;;;5038622;28;20041;-88
2021/09/09 04:42:14;;;;;;;12.07;8.88;;;16.40;99.90;;;;;;5067834;28;20116;-87
2021/09/09 04:44:40;;;;;;;13.85;8.48;;;17.20;99.90;;;;;;5051553;28;20021;-87
2021/09/09 04:47:06;;;;;;;15.13;8.35;;;;;;;;;;5051333;28;20029;-87
2021/09/09 04:49:32;;;;;;;14.10;8.50;;;;;;;;;;5057968;28;20024;-87
2021/09/09 04:51:58;;;;;;;13.68;8.13;;;;;;;;;;5057291;28;20029;-88
2021/09/09 04:54:24;;;;;;;13.90;8.70;;;;;;;;;;5055731;28;20036;-90
2021/09/09 04:56:50;;;;;;;13.68;8.60;;;;;;;;;;5040288;28;20028;-88
2021/09/09 04:59:16;;;;;;;14.20;8.23;;;;;;;;;;5050391;28;20117;-87
2021/09/09 05:01:42;;;;;;;13.55;8.20;;;16.50;99.90;;;;;;5050166;28;20556;-88
2021/09/09 05:04:07;;;;;;;14.18;7.95;;;16.50;99.90;;;;;;5051997;28;20075;-88
2021/09/09 05:06:33;;;;;;;11.82;7.80;;;16.60;99.90;;;;;;5045238;28;20022;-87
2021/09/09 05:08:59;;;;;;;12.93;7.35;;;16.60;99.90;;;;;;5048043;28;20385;-85
2021/09/09 05:11:24;;;;;;;11.90;7.35;;;16.60;99.90;;;;;;5065398;28;20021;-87
2021/09/09 05:13:50;;;;;;;12.05;7.35;;;16.60;99.90;;;;;;5066479;28;20097;-88
2021/09/09 05:16:16;;;;;;;14.07;8.00;;;16.60;99.90;;;;;;5045787;28;20033;-83
2021/09/09 05:18:42;;;;;;;10.50;7.32;;;17.40;99.90;;;;;;5043265;28;20044;-86
2021/09/09 05:21:07;;;;;;;10.85;7.55;;;16.50;99.90;;;;;;5051260;28;20025;-85
2021/09/09 05:23:33;;;;;;;16.50;8.20;;;16.50;99.90;;;;;;5051504;28;20465;-87
2021/09/09 05:25:59;;;;;;;13.48;7.78;;;16.50;99.90;;;;;;5054852;28;20152;-85
2021/09/09 05:28:24;;;;;;;12.32;8.30;;;16.60;99.90;;;;;;5045586;28;20435;-83
2021/09/09 05:30:50;;;;;;;11.73;8.10;;;16.60;99.90;;;;;;5049732;28;20021;-85
2021/09/09 05:33:15;;;;;;;13.85;8.60;;;16.60;99.90;;;;;;5047106;28;20056;-86
2021/09/09 05:35:43;;;;;;;13.30;7.95;;;;;;;;;;5048308;28;20527;-86
2021/09/09 05:38:08;;;;;;;12.23;8.02;;;16.60;99.90;;;;;;5048878;28;20025;-86
2021/09/09 05:40:34;;;;;;;13.93;8.52;;;16.60;99.90;;;;;;5044619;28;20014;-87
2021/09/09 05:43:00;;;;;;;13.80;8.13;;;16.70;99.90;;;;;;5056142;28;20055;-87
2021/09/09 05:45:26;;;;;;;14.82;8.25;;;16.70;99.90;;;;;;5055544;28;20547;-84
2021/09/09 05:47:51;;;;;;;14.93;7.93;;;16.80;99.90;;;;;;5053885;28;20033;-86
2021/09/09 05:50:18;;;;;;;17.40;7.88;;;16.70;99.90;;;;;;5040362;28;20115;-86
2021/09/09 05:52:45;;;;;;;13.80;7.88;;;16.80;99.90;;;;;;5039602;28;20041;-87
2021/09/09 05:55:11;;;;;;;12.15;7.95;;;17.00;99.90;;;;;;5051818;28;20021;-86
2021/09/09 05:57:37;;;;;;;16.05;9.20;;;16.80;99.90;;;;;;5044736;28;20021;-86
2021/09/09 06:00:04;;;;;;;19.05;9.70;;;16.90;99.90;;;;;;5054306;28;20029;-83
2021/09/09 06:02:31;;;;;;;20.40;10.13;;;17.00;99.90;;;;;;5053742;28;20029;-85
2021/09/09 06:04:58;;;;;;;19.23;8.80;;;17.00;99.90;;;;;;5049749;28;20033;-86
2021/09/09 06:07:26;;;;;;;14.43;8.65;;;17.00;99.90;;;;;;5053861;28;20029;-86
2021/09/09 06:09:52;;;;;;;14.25;8.88;;;17.10;99.90;;;;;;5053582;28;20037;-86
2021/09/09 06:12:19;;;;;;;14.32;8.10;;;17.20;99.90;;;;;;5062148;28;20052;-87
2021/09/09 06:14:45;;;;;;;13.38;8.27;;;17.20;99.90;;;;;;5053767;28;20037;-84
2021/09/09 06:17:11;;;;;;;16.35;8.38;;;17.20;99.90;;;;;;5047919;28;20067;-87
2021/09/09 06:19:37;;;;;;;19.13;8.52;;;17.30;99.90;;;;;;5049725;28;20398;-86
2021/09/09 06:22:03;;;;;;;21.83;9.15;;;17.30;99.90;;;;;;5053550;28;20385;-83
2021/09/09 06:24:28;;;;;;;19.42;8.60;;;17.40;99.90;;;;;;5075369;28;20052;-84
2021/09/09 06:26:54;;;;;;;19.27;8.80;;;17.50;99.90;;;;;;5058829;28;20079;-87
2021/09/09 06:29:20;;;;;;;22.30;8.60;;;17.50;99.90;;;;;;5059100;28;20025;-86
2021/09/09 06:31:46;;;;;;;13.93;7.75;;;17.60;99.90;;;;;;5047944;28;20147;-85
2021/09/09 06:34:13;;;;;;;11.93;7.43;;;17.80;99.90;;;;;;5058342;28;20025;-85
2021/09/09 06:36:41;;;;;;;11.77;7.22;;;;;;;;;;5042976;28;20017;-86
2021/09/09 06:39:07;;;;;;;14.60;7.32;;;;;;;;;;5054232;28;20401;-85
2021/09/09 06:41:33;;;;;;;12.85;6.82;;;;;;;;;;5049317;28;20017;-85
2021/09/09 06:43:59;;;;;;;17.45;6.80;;;;;;;;;;5062959;28;20031;-89
2021/09/09 06:46:25;;;;;;;13.98;6.85;;;;;;;;;;5056598;28;20070;-88
2021/09/09 06:48:51;;;;;;;14.75;7.47;;;;;;;;;;5067465;28;20043;-88
2021/09/09 06:51:21;;;;;;;13.02;6.93;;;18.50;99.90;;;;;;5060296;28;20064;-86
2021/09/09 06:53:46;;;;;;;11.07;6.53;;;18.60;99.90;;;;;;5060092;28;20029;-87
2021/09/09 06:56:13;;;;;;;10.93;6.57;;;;;;;;;;5059046;28;20120;-85
2021/09/09 06:58:39;;;;;;;14.93;6.65;;;;;;;;;;5058593;28;20051;-85
2021/09/09 07:01:05;;;;;;;14.07;6.43;;;;;;;;;;5057301;28;20033;-87
2021/09/09 07:03:30;;;;;;;12.90;6.82;;;18.90;99.90;;;;;;5057014;28;20426;-85
2021/09/09 07:05:57;;;;;;;13.13;6.90;;;18.90;99.90;;;;;;5057585;28;20028;-87
2021/09/09 07:08:23;;;;;;;13.13;7.03;;;;;;;;;;5056764;28;20543;-88
2021/09/09 07:10:49;;;;;;;16.73;7.07;;;;;;;;;;5057780;28;20059;-87
2021/09/09 07:13:18;;;;;;;14.23;6.40;;;;;;;;;;5057444;28;20025;-87
2021/09/09 07:15:44;;;;;;;19.10;6.75;;;19.30;99.90;;;;;;5059287;28;20021;-86
2021/09/09 07:18:10;;;;;;;13.35;6.97;;;;;;;;;;5058170;28;20025;-85
2021/09/09 07:20:36;;;;;;;14.43;6.88;;;;;;;;;;5056384;28;20040;-86
2021/09/09 07:23:02;;;;;;;15.10;6.85;;;19.30;99.90;;;;;;5057177;28;20028;-86
2021/09/09 07:25:27;;;;;;;11.93;7.10;;;19.40;99.90;;;;;;5056533;28;20025;-85
2021/09/09 07:27:53;;;;;;;12.50;6.25;;;;;;;;;;5056670;28;20048;-86
2021/09/09 07:30:19;;;;;;;11.13;6.15;;;;;;;;;;5056883;28;20051;-86
2021/09/09 07:32:45;;;;;;;8.57;5.22;;;19.60;99.90;;;;;;5056266;28;20068;-86
2021/09/09 07:35:11;;;;;;;9.88;5.40;;;19.70;99.90;;;;;;5056005;28;20115;-87
2021/09/09 07:37:37;;;;;;;9.35;5.88;;;19.70;99.90;;;;;;5055996;28;20044;-85
2021/09/09 07:40:04;;;;;;;11.85;5.40;;;19.90;99.90;;;;;;5055930;28;20055;-86
2021/09/09 07:42:30;;;;;;;8.90;5.50;;;;;;;;;;5056105;28;20025;-87
2021/09/09 07:44:55;;;;;;;9.18;5.55;;;20.10;99.70;;;;;;5054600;28;20021;-87
2021/09/09 07:47:21;;;;;;;11.57;5.80;;;20.30;99.80;;;;;;5061285;22;20397;-83
2021/09/09 07:49:47;;;;;;;9.20;5.68;;;20.60;99.40;;;;;;5059253;28;20509;-88
2021/09/09 07:52:12;;;;;;;7.50;5.50;;;20.90;99.00;;;;;;5064075;28;20036;-87
2021/09/09 07:54:38;;;;;;;8.88;5.20;;;21.10;98.80;;;;;;5057606;28;20019;-88
2021/09/09 07:57:04;;;;;;;9.05;5.30;;;21.30;98.70;;;;;;5054308;28;20024;-84
2021/09/09 07:59:30;;;;;;;8.88;5.80;;;;;;;;;;5052107;28;20072;-82
2021/09/09 08:01:55;;;;;;;10.90;5.57;;;21.40;98.50;;;;;;5063984;28;20025;-85
2021/09/09 08:04:23;;;;;;;8.55;5.07;;;;;;;;;;5050011;28;20052;-88
2021/09/09 08:06:48;;;;;;;10.25;5.57;;;21.40;98.60;;;;;;5048417;28;20934;-87
2021/09/09 08:09:14;;;;;;;8.20;5.28;;;21.50;98.80;;;;;;5062237;28;20025;-83
2021/09/09 08:11:40;;;;;;;14.63;5.60;;;21.50;99.00;;;;;;5059994;28;20079;-86
2021/09/09 08:14:06;;;;;;;8.88;5.63;;;21.70;98.80;;;;;;5053038;28;20016;-88
2021/09/09 08:16:32;;;;;;;11.43;5.75;;;21.90;98.40;;;;;;5060851;28;20036;-88
2021/09/09 08:18:58;;;;;;;11.35;5.75;;;22.20;98.00;;;;;;5050422;28;20082;-87
2021/09/09 08:21:24;;;;;;;10.32;5.85;;;22.30;97.60;;;;;;5049693;28;20025;-86
2021/09/09 08:23:49;;;;;;;9.80;5.50;;;22.50;97.40;;;;;;5051948;28;20119;-87
2021/09/09 08:26:15;;;;;;;9.57;5.60;;;22.60;97.40;;;;;;5050839;28;20033;-84
2021/09/09 08:28:41;;;;;;;12.60;5.47;;;22.70;97.20;;;;;;5044479;28;20033;-88
2021/09/09 08:31:06;;;;;;;10.90;5.32;;;22.80;97.20;;;;;;5046989;28;20036;-85
2021/09/09 08:33:32;;;;;;;10.20;5.40;;;22.80;97.10;;;;;;5053002;28;20135;-84
2021/09/09 08:36:06;;;;;;;9.98;5.43;;;22.80;97.30;;;;;;5051460;28;20512;-86
2021/09/09 08:38:32;;;;;;;10.38;5.60;;;22.80;97.20;;;;;;5046686;28;20052;-87
2021/09/09 08:41:01;;;;;;;7.95;5.10;;;22.70;97.60;;;;;;5051201;28;20021;-86
2021/09/09 08:43:27;;;;;;;11.57;5.82;;;;;;;;;;5051506;28;20374;-85
2021/09/09 08:45:53;;;;;;;8.90;5.18;;;22.50;97.70;;;;;;5044639;28;20489;-87
2021/09/09 08:48:19;;;;;;;7.88;5.55;;;22.40;98.30;;;;;;5049722;28;20043;-88
2021/09/09 08:50:46;;;;;;;10.40;5.85;;;22.40;98.50;;;;;;5052505;28;20037;-83
2021/09/09 08:53:13;;;;;;;11.00;5.78;;;22.30;99.00;;;;;;5046995;28;20055;-84
2021/09/09 08:55:39;;;;;;;9.13;5.03;;;22.30;99.20;;;;;;5048395;28;20503;-87
2021/09/09 08:58:05;;;;;;;10.55;5.38;;;22.30;99.60;;;;;;5048710;28;20085;-88
2021/09/09 09:00:32;;;;;;;12.05;5.05;;;22.30;99.50;;;;;;5048366;28;20422;-86
2021/09/09 09:02:58;;;;;;;16.75;5.20;;;22.30;99.90;;;;;;5044191;28;20025;-88
2021/09/09 09:05:24;;;;;;;9.93;5.40;;;22.30;99.90;;;;;;5039134;28;20033;-87
2021/09/09 09:08:01;;;;;;;11.90;5.50;;;22.30;99.90;;;;;;5045231;28;20077;-87
2021/09/09 09:10:28;;;;;;;9.25;5.10;;;22.20;99.90;;;;;;5069468;28;20029;-83
2021/09/09 09:12:54;;;;;;;9.75;5.00;;;;;;;;;;5047335;28;20037;-87
2021/09/09 09:15:26;;;;;;;11.80;5.07;;;22.30;99.90;;;;;;5052682;28;20021;-87
2021/09/09 09:18:01;;;;;;;11.55;5.72;;;22.20;99.90;;;;;;5051072;28;20029;-84
2021/09/09 09:20:42;;;;;;;12.90;5.35;;;22.20;99.90;;;;;;5039228;28;20840;-84
2021/09/09 09:23:18;;;;;;;10.02;5.35;;;22.20;99.90;;;;;;5047659;28;20436;-84
2021/09/09 09:25:54;;;;;;;8.02;5.20;;;22.20;99.90;;;;;;5051450;28;20029;-83
2021/09/09 09:28:40;;;;;;;8.52;5.50;;;22.20;99.90;;;;;;5053917;28;20029;-83
2021/09/09 09:31:09;;;;;;;8.63;5.38;;;22.30;99.90;;;;;;5052534;28;20037;-83
2021/09/09 09:33:37;;;;;;;7.97;4.63;;;22.20;99.90;;;;;;5051257;28;20029;-87
2021/09/09 09:36:22;;;;;;;7.85;5.10;;;22.30;99.90;;;;;;5050857;28;20268;-86
2021/09/09 09:38:49;;;;;;;7.65;4.95;;;22.30;99.90;;;;;;5055442;28;20467;-87
2021/09/09 09:41:18;;;;;;;8.68;4.90;;;22.40;99.90;;;;;;5052628;28;20036;-86
2021/09/09 09:44:03;;;;;;;9.07;5.25;;;22.50;99.90;;;;;;5050283;28;20021;-85
2021/09/09 09:46:31;;;;;;;10.27;5.40;;;22.50;99.90;;;;;;5053677;28;20036;-84
2021/09/09 09:49:16;;;;;;;11.90;5.35;;;22.50;99.90;;;;;;5063247;28;20037;-83
2021/09/09 09:51:44;;;;;;;8.85;4.97;;;22.70;99.90;;;;;;5061662;28;20048;-87
2021/09/09 09:54:11;;;;;;;11.07;4.53;;;22.80;99.90;;;;;;5054380;28;20124;-86
2021/09/09 09:56:39;;;;;;;8.95;4.93;;;22.80;99.90;;;;;;5037474;28;20048;-87
2021/09/09 09:59:05;;;;;;;12.32;4.57;;;;;;;;;;5045398;28;20124;-85
2021/09/09 10:01:32;;;;;;;8.82;5.07;;;22.70;99.90;;;;;;5052290;28;20592;-85
2021/09/09 10:04:07;;;;;;;11.25;5.45;;;22.60;99.90;;;;;;5038110;28;20028;-85
2021/09/09 10:06:33;;;;;;;10.48;5.88;;;22.70;99.90;;;;;;5044864;28;20378;-87
2021/09/09 10:09:01;;;;;;;9.20;5.28;;;22.70;99.90;;;;;;5038815;28;20294;-87
2021/09/09 10:11:27;;;;;;;10.82;4.88;;;22.70;99.90;;;;;;5037205;28;20025;-82
2021/09/09 10:13:57;;;;;;;10.02;5.15;;;22.50;99.90;;;;;;5043524;28;20032;-88
2021/09/09 10:16:26;;;;;;;7.90;4.95;;;22.40;99.90;;;;;;5043265;28;20436;-88
2021/09/09 10:18:52;;;;;;;11.20;5.40;;;22.30;99.90;;;;;;5059425;28;20050;-83
2021/09/09 10:21:46;;;;;;;7.80;4.80;;;22.40;99.90;;;;;;5043498;28;20028;-87
2021/09/09 10:24:28;;;;;;;8.02;4.38;;;22.30;99.90;;;;;;5048467;28;20033;-87
2021/09/09 10:27:16;;;;;;;10.45;4.95;;;22.30;99.90;;;;;;5052755;28;20025;-86
2021/09/09 10:29:44;;;;;;;8.15;4.10;;;22.30;99.90;;;;;;5049170;28;20076;-82
2021/09/09 10:32:28;;;;;;;7.47;3.67;;;22.30;99.90;;;;;;5054704;28;20096;-87
2021/09/09 10:37:46;;;;;;;4.80;2.60;;;22.10;99.90;;;;;;5040076;28;20604;-85
2021/09/09 10:40:36;;;;;;;5.03;2.50;;;22.10;99.90;;;;;;5052674;28;20537;-82
2021/09/09 10:43:10;;;;;;;5.25;2.47;;;22.10;99.90;;;;;;5040157;28;20029;-83
2021/09/09 10:45:36;;;;;;;17.65;5.68;;;22.10;99.90;;;;;;5049613;28;20024;-84
2021/09/09 10:48:04;;;;;;;4.63;2.53;;;22.10;99.90;;;;;;5033613;28;20034;-85
2021/09/09 10:50:30;;;;;;;6.50;2.78;;;22.20;99.90;;;;;;5049510;28;20028;-86
2021/09/09 10:53:03;;;;;;;6.47;2.92;;;22.40;99.90;;;;;;5053637;28;20025;-84
2021/09/09 10:55:32;;;;;;;6.50;2.58;;;22.50;99.90;;;;;;5043342;28;20017;-85
2021/09/09 10:58:20;;;;;;;6.20;2.73;;;22.60;99.90;;;;;;5055106;28;20051;-84
2021/09/09 11:01:05;;;;;;;6.25;2.90;;;22.70;99.90;;;;;;5045766;28;20025;-85
2021/09/09 11:03:42;;;;;;;6.20;3.00;;;22.90;99.90;;;;;;5057195;28;20490;-86
2021/09/09 11:06:19;;;;;;;4.95;3.13;;;22.90;99.90;;;;;;5051882;28;20550;-85
2021/09/09 11:08:47;;;;;;;5.43;3.08;;;23.00;99.90;;;;;;5053922;28;20037;-86
2021/09/09 11:11:21;;;;;;;7.15;3.25;;;23.00;99.90;;;;;;5058651;28;20031;-85
2021/09/09 11:13:54;;;;;;;4.90;3.00;;;23.30;99.90;;;;;;5047756;28;20112;-85
2021/09/09 11:16:26;;;;;;;4.22;2.90;;;23.50;99.90;;;;;;5059956;28;20031;-83
2021/09/09 11:18:52;;;;;;;4.18;2.50;;;23.60;99.60;;;;;;5045056;28;20021;-86
2021/09/09 11:21:20;;;;;;;4.03;2.50;;;23.60;99.30;;;;;;5057249;28;20028;-85
2021/09/09 11:23:48;;;;;;;5.97;2.63;;;23.60;99.20;;;;;;5070782;28;20385;-85
2021/09/09 11:26:19;;;;;;;4.10;2.22;;;23.70;98.90;;;;;;5054670;28;20037;-85
2021/09/09 11:28:46;;;;;;;6.05;2.40;;;23.90;98.80;;;;;;5056032;28;20633;-83
2021/09/09 11:31:15;;;;;;;5.40;2.53;;;24.00;98.10;;;;;;5054265;28;20162;-86
2021/09/09 11:34:02;;;;;;;6.90;2.42;;;24.20;98.00;;;;;;5054502;28;20029;-84
2021/09/09 11:36:33;;;;;;;7.30;2.60;;;24.10;98.00;;;;;;5046190;28;20037;-87
2021/09/09 11:39:03;;;;;;;4.22;2.60;;;24.20;97.90;;;;;;5052750;28;20027;-84
2021/09/09 11:41:30;;;;;;;5.43;2.70;;;24.30;97.70;;;;;;5059390;28;20021;-86
2021/09/09 11:43:59;;;;;;;4.57;2.20;;;24.40;97.70;;;;;;5055399;28;20170;-86
2021/09/09 11:46:28;;;;;;;5.03;2.50;;;24.30;97.90;;;;;;5068349;28;20043;-85
2021/09/09 11:48:58;;;;;;;6.23;3.50;;;24.40;97.80;;;;;;5060250;28;20054;-84
2021/09/09 11:51:42;;;;;;;5.18;2.88;;;24.40;97.70;;;;;;5053731;28;20036;-86
2021/09/09 11:54:08;;;;;;;4.07;2.28;;;24.40;97.70;;;;;;5054837;28;20033;-84
2021/09/09 11:56:35;;;;;;;8.50;2.72;;;24.40;97.70;;;;;;5053522;28;20028;-82
2021/09/09 11:59:03;;;;;;;7.13;3.20;;;24.40;97.80;;;;;;5052996;28;20028;-84
2021/09/09 12:01:31;;;;;;;4.80;2.95;;;24.50;98.00;;;;;;5054231;28;20074;-83
2021/09/09 12:03:59;;;;;;;9.00;3.55;;;24.60;97.70;;;;;;5051571;28;20028;-84
2021/09/09 12:06:25;;;;;;;6.05;2.85;;;24.70;97.60;;;;;;5052567;28;20081;-83
2021/09/09 12:08:51;;;;;;;5.70;2.95;;;24.70;97.50;;;;;;5052548;28;20420;-84
2021/09/09 12:11:17;;;;;;;3.60;2.47;;;24.60;97.70;;;;;;5053788;28;20120;-85
2021/09/09 12:13:46;;;;;;;6.45;2.55;;;24.50;97.80;;;;;;5056329;28;20029;-84
2021/09/09 12:16:23;;;;;;;11.20;4.28;;;24.40;97.90;;;;;;5054177;28;20021;-82
2021/09/09 12:19:06;;;;;;;5.18;3.00;;;24.30;98.20;;;;;;5053117;28;20017;-84
2021/09/09 12:21:32;;;;;;;5.32;2.47;;;24.40;98.20;;;;;;5064043;28;20025;-83
2021/09/09 12:24:04;;;;;;;7.07;3.20;;;24.50;98.00;;;;;;5059527;28;20032;-85
2021/09/09 12:26:31;;;;;;;5.00;2.97;;;24.70;97.80;;;;;;5072815;28;20025;-84
2021/09/09 12:28:57;;;;;;;5.32;2.60;;;25.10;97.30;;;;;;5056810;28;20123;-84
2021/09/09 12:31:36;;;;;;;4.15;3.00;;;25.50;96.50;;;;;;5056755;28;20068;-84
2021/09/09 12:34:10;;;;;;;4.05;3.08;;;25.90;95.00;;;;;;5057028;28;20029;-86
2021/09/09 12:36:42;;;;;;;4.43;3.17;;;26.30;94.30;;;;;;5040153;28;20401;-83
2021/09/09 12:39:09;;;;;;;6.82;3.75;;;26.80;93.60;;;;;;5057825;28;20025;-84
2021/09/09 12:41:34;;;;;;;6.60;3.80;;;26.90;92.70;;;;;;5053565;28;20028;-84
2021/09/09 12:44:03;;;;;;;4.45;3.20;;;26.90;93.00;;;;;;5049281;28;20402;-83
2021/09/09 12:46:37;;;;;;;4.15;3.10;;;26.70;93.00;;;;;;5054387;28;20029;-84
2021/09/09 12:49:06;;;;;;;6.07;2.75;;;26.90;92.90;;;;;;5058973;28;20496;-84
2021/09/09 12:51:34;;;;;;;5.82;3.03;;;26.80;92.90;;;;;;5064933;28;20040;-83
2021/09/09 12:54:00;;;;;;;5.22;3.17;;;26.70;92.80;;;;;;5058301;28;20031;-85
2021/09/09 12:56:25;;;;;;;6.18;3.42;;;26.60;93.00;;;;;;5052780;28;20031;-84